Boynton Beach, FL (33436)

3:44 PM EDT on June 30, 2015 (GMT -0400)
Princeton Place | | Change Station
CLOSE
Current Station
Personal Weather Station
Location: Boynton Beach, FL
Elevation: 36 ft
Nearby Weather Stations

Elev 36 ft 26.55 °N, 80.12 °W | Updated 12 seconds ago

Mostly Cloudy
Mostly Cloudy
95.4 °F
Feels Like 131 °F
N
0.0
Wind Variable Wind from South
Gusts 1.6 mph

Today
High -- | Low -- °F
--% Chance of Precip.
Yesterday
High -- | Low -- °F
Precip. -- in
6:30 AM 8:17 PM
Waxing Gibbous, 98% visible
Pressure 30.12 in
Visibility 10.0 miles
Clouds Scattered Clouds 4800 ft
Scattered Clouds 6500 ft
Mostly Cloudy 14000 ft
Heat Index 131 °F
Dew Point 87 °F
Humidity 76%
Rainfall in
Snow Depth Not available.
UV 8 out of 12
Pollen 3.50 out of 12
Air Quality Not available.
Flu Activity Sporadic
METAR KPBI 301853Z 08009KT 10SM SCT048 SCT065 BKN140 31/22 A3012 RMK AO2 SLP199 T03110222

More Conditions Fewer Conditions

Pressure 30.12 in
Visibility 10.0 miles
Clouds Scattered Clouds 4800 ft
Scattered Clouds 6500 ft
Mostly Cloudy 14000 ft
Heat Index 131 °F
Dew Point 87 °F
Humidity 76%
Rainfall in
Snow Depth Not available.
UV 8 out of 12
Pollen 3.50 out of 12
Air Quality Not available.
Flu Activity Sporadic
METAR KPBI 301853Z 08009KT 10SM SCT048 SCT065 BKN140 31/22 A3012 RMK AO2 SLP199 T03110222

More Conditions Fewer Conditions

10-Day Weather Forecast

×

Almanac

Astronomy

Jun. 30, 2015 Rise Set
Actual Time
Civil Twilight
Nautical Twilight
Astronomical Twilight
Moon
Length of Visible Light
Length of Day
Tomorrow will be .
, % of the Moon is Illuminated

Today's Extremes

State Highs State Lows

Community

WunderPhotos

Upload Photos

1,834,067 photos uploaded!

WunderBlogs® & News

Nearby

Air Quality

  Air Quality AQ Index Pollutant
Not available.

Snow Depth

Station Depth Elevation

Earthquake Activity

City Distance Mag. Time & Date
Minimum magnitude displayed is 2.5.

Coastal Water Temperatures

Place Temperature

Stations

Nearby Weather Stations

Station Location Temp. Windchill Dew Point Humidity Wind Precip. Elev Updated Type